sensor_id;sensor_type;location;lat;lon;timestamp;pressure;altitude;pressure_sealevel;temperature;humidity
76195;BME280;64964;48.694;21.206;2024-01-06T00:01:48;97254.72;;;7.26;71.73
76195;BME280;64964;48.694;21.206;2024-01-06T00:04:14;97253.91;;;7.26;71.15
76195;BME280;64964;48.694;21.206;2024-01-06T00:06:39;97233.19;;;7.14;71.19
76195;BME280;64964;48.694;21.206;2024-01-06T00:09:05;97275.59;;;7.36;71.03
76195;BME280;64964;48.694;21.206;2024-01-06T00:11:30;97233.88;;;7.08;71.13
76195;BME280;64964;48.694;21.206;2024-01-06T00:13:55;97257.03;;;7.21;71.11
76195;BME280;64964;48.694;21.206;2024-01-06T00:16:21;97269.34;;;7.29;70.81
76195;BME280;64964;48.694;21.206;2024-01-06T00:18:46;97265.06;;;7.28;70.84
76195;BME280;64964;48.694;21.206;2024-01-06T00:21:12;97257.19;;;7.19;70.70
76195;BME280;64964;48.694;21.206;2024-01-06T00:23:37;97263.91;;;7.22;70.91
76195;BME280;64964;48.694;21.206;2024-01-06T00:26:03;97242.09;;;7.05;70.89
76195;BME280;64964;48.694;21.206;2024-01-06T00:28:29;97248.81;;;7.08;70.88
76195;BME280;64964;48.694;21.206;2024-01-06T00:30:54;97262.09;;;7.14;70.91
76195;BME280;64964;48.694;21.206;2024-01-06T00:33:20;97260.97;;;7.09;70.98
76195;BME280;64964;48.694;21.206;2024-01-06T00:35:46;97269.53;;;7.11;70.81
76195;BME280;64964;48.694;21.206;2024-01-06T00:38:11;97259.97;;;7.02;70.88
76195;BME280;64964;48.694;21.206;2024-01-06T00:40:36;97265.75;;;7.05;70.77
76195;BME280;64964;48.694;21.206;2024-01-06T00:43:02;97268.69;;;7.02;70.73
76195;BME280;64964;48.694;21.206;2024-01-06T00:45:27;97271.16;;;6.95;70.85
76195;BME280;64964;48.694;21.206;2024-01-06T00:47:53;97255.09;;;6.82;70.49
76195;BME280;64964;48.694;21.206;2024-01-06T00:50:18;97279.88;;;6.88;70.55
76195;BME280;64964;48.694;21.206;2024-01-06T00:52:46;97256.06;;;6.73;70.94
76195;BME280;64964;48.694;21.206;2024-01-06T00:55:12;97264.28;;;6.78;70.85
76195;BME280;64964;48.694;21.206;2024-01-06T00:57:37;97237.00;;;6.55;70.54
76195;BME280;64964;48.694;21.206;2024-01-06T01:00:05;97264.28;;;6.70;70.66
76195;BME280;64964;48.694;21.206;2024-01-06T01:02:31;97277.72;;;6.75;71.27
76195;BME280;64964;48.694;21.206;2024-01-06T01:04:57;97277.09;;;6.73;70.71
76195;BME280;64964;48.694;21.206;2024-01-06T01:07:23;97273.78;;;6.71;70.76
76195;BME280;64964;48.694;21.206;2024-01-06T01:09:48;97273.47;;;6.66;70.83
76195;BME280;64964;48.694;21.206;2024-01-06T01:12:14;97270.34;;;6.62;70.70
76195;BME280;64964;48.694;21.206;2024-01-06T01:14:39;97267.88;;;6.61;70.87
76195;BME280;64964;48.694;21.206;2024-01-06T01:17:05;97269.19;;;6.57;70.59
76195;BME280;64964;48.694;21.206;2024-01-06T01:19:30;97269.19;;;6.57;70.70
76195;BME280;64964;48.694;21.206;2024-01-06T01:21:55;97251.91;;;6.46;70.66
76195;BME280;64964;48.694;21.206;2024-01-06T01:24:22;97247.66;;;6.37;70.68
76195;BME280;64964;48.694;21.206;2024-01-06T01:26:48;97263.56;;;6.43;70.69
76195;BME280;64964;48.694;21.206;2024-01-06T01:29:13;97239.59;;;6.30;70.84
76195;BME280;64964;48.694;21.206;2024-01-06T01:31:39;97260.28;;;6.41;70.59
76195;BME280;64964;48.694;21.206;2024-01-06T01:34:04;97248.78;;;6.34;70.62
76195;BME280;64964;48.694;21.206;2024-01-06T01:36:29;97259.13;;;6.36;70.61
76195;BME280;64964;48.694;21.206;2024-01-06T01:38:55;97246.50;;;6.31;70.75
76195;BME280;64964;48.694;21.206;2024-01-06T01:41:20;97246.63;;;6.30;70.87
76195;BME280;64964;48.694;21.206;2024-01-06T01:43:46;97229.88;;;6.14;70.91
76195;BME280;64964;48.694;21.206;2024-01-06T01:46:11;97237.59;;;6.16;71.05
76195;BME280;64964;48.694;21.206;2024-01-06T01:48:37;97232.66;;;6.13;71.15
76195;BME280;64964;48.694;21.206;2024-01-06T01:51:03;97248.25;;;6.22;71.16
76195;BME280;64964;48.694;21.206;2024-01-06T01:53:29;97244.00;;;6.21;70.97
76195;BME280;64964;48.694;21.206;2024-01-06T01:55:55;97201.94;;;5.97;71.22
76195;BME280;64964;48.694;21.206;2024-01-06T01:58:21;97236.44;;;6.18;71.24
76195;BME280;64964;48.694;21.206;2024-01-06T02:00:47;97216.28;;;6.11;71.25
76195;BME280;64964;48.694;21.206;2024-01-06T02:03:13;97233.50;;;6.21;71.68
76195;BME280;64964;48.694;21.206;2024-01-06T02:05:38;97219.03;;;6.09;71.39
76195;BME280;64964;48.694;21.206;2024-01-06T02:08:05;97227.09;;;6.16;71.64
76195;BME280;64964;48.694;21.206;2024-01-06T02:10:30;97234.50;;;6.20;71.58
76195;BME280;64964;48.694;21.206;2024-01-06T02:12:56;97197.88;;;6.03;71.86
76195;BME280;64964;48.694;21.206;2024-01-06T02:15:21;97197.69;;;5.96;71.85
76195;BME280;64964;48.694;21.206;2024-01-06T02:17:46;97215.09;;;6.13;71.89
76195;BME280;64964;48.694;21.206;2024-01-06T02:20:12;97193.59;;;6.02;71.79
76195;BME280;64964;48.694;21.206;2024-01-06T02:22:39;97211.50;;;6.14;71.61
76195;BME280;64964;48.694;21.206;2024-01-06T02:25:05;97211.34;;;6.16;71.80
76195;BME280;64964;48.694;21.206;2024-01-06T02:27:37;97208.41;;;6.11;72.03
76195;BME280;64964;48.694;21.206;2024-01-06T02:30:03;97208.88;;;6.14;71.60
76195;BME280;64964;48.694;21.206;2024-01-06T02:32:28;97198.03;;;6.09;71.62
76195;BME280;64964;48.694;21.206;2024-01-06T02:34:53;97210.69;;;6.14;72.19
76195;BME280;64964;48.694;21.206;2024-01-06T02:37:19;97206.09;;;6.16;72.01
76195;BME280;64964;48.694;21.206;2024-01-06T02:39:44;97208.56;;;6.17;72.03
76195;BME280;64964;48.694;21.206;2024-01-06T02:42:09;97201.50;;;6.18;71.85
76195;BME280;64964;48.694;21.206;2024-01-06T02:44:35;97194.59;;;6.09;71.93
76195;BME280;64964;48.694;21.206;2024-01-06T02:47:00;97200.34;;;6.12;71.98
76195;BME280;64964;48.694;21.206;2024-01-06T02:49:25;97110.88;;;5.65;72.06
76195;BME280;64964;48.694;21.206;2024-01-06T02:51:51;97183.13;;;6.10;72.27
76195;BME280;64964;48.694;21.206;2024-01-06T02:54:16;97186.56;;;6.18;72.36
76195;BME280;64964;48.694;21.206;2024-01-06T02:56:41;97179.53;;;6.19;72.58
76195;BME280;64964;48.694;21.206;2024-01-06T02:59:07;97181.00;;;6.21;72.49
76195;BME280;64964;48.694;21.206;2024-01-06T03:01:32;97180.69;;;6.24;72.29
76195;BME280;64964;48.694;21.206;2024-01-06T03:03:57;97171.81;;;6.26;72.61
76195;BME280;64964;48.694;21.206;2024-01-06T03:06:23;97162.63;;;6.21;72.67
76195;BME280;64964;48.694;21.206;2024-01-06T03:08:49;97152.13;;;6.21;72.46
76195;BME280;64964;48.694;21.206;2024-01-06T03:11:14;97159.19;;;6.29;72.62
76195;BME280;64964;48.694;21.206;2024-01-06T03:13:39;97161.16;;;6.35;72.51
76195;BME280;64964;48.694;21.206;2024-01-06T03:16:05;97138.53;;;6.26;72.20
76195;BME280;64964;48.694;21.206;2024-01-06T03:18:30;97159.03;;;6.39;72.48
76195;BME280;64964;48.694;21.206;2024-01-06T03:20:56;97164.13;;;6.40;72.29
76195;BME280;64964;48.694;21.206;2024-01-06T03:23:21;97169.22;;;6.42;72.21
76195;BME280;64964;48.694;21.206;2024-01-06T03:25:46;97167.72;;;6.39;72.57
76195;BME280;64964;48.694;21.206;2024-01-06T03:28:12;97178.59;;;6.44;72.26
76195;BME280;64964;48.694;21.206;2024-01-06T03:30:37;97174.28;;;6.43;72.18
76195;BME280;64964;48.694;21.206;2024-01-06T03:33:03;97167.59;;;6.41;72.42
76195;BME280;64964;48.694;21.206;2024-01-06T03:35:28;97145.75;;;6.32;72.29
76195;BME280;64964;48.694;21.206;2024-01-06T03:37:54;97162.84;;;6.44;72.43
76195;BME280;64964;48.694;21.206;2024-01-06T03:40:20;97146.56;;;6.41;72.43
76195;BME280;64964;48.694;21.206;2024-01-06T03:42:45;97163.66;;;6.45;72.69
76195;BME280;64964;48.694;21.206;2024-01-06T03:45:10;97151.66;;;6.42;72.69
76195;BME280;64964;48.694;21.206;2024-01-06T03:47:36;97133.13;;;6.36;72.47
76195;BME280;64964;48.694;21.206;2024-01-06T03:50:01;97115.25;;;6.23;72.63
76195;BME280;64964;48.694;21.206;2024-01-06T03:52:27;97151.84;;;6.41;72.52
76195;BME280;64964;48.694;21.206;2024-01-06T03:54:52;97151.97;;;6.39;72.61
76195;BME280;64964;48.694;21.206;2024-01-06T03:57:17;97143.78;;;6.34;72.56
76195;BME280;64964;48.694;21.206;2024-01-06T03:59:43;97142.16;;;6.33;72.44
76195;BME280;64964;48.694;21.206;2024-01-06T04:02:08;97139.19;;;6.28;72.50
76195;BME280;64964;48.694;21.206;2024-01-06T04:04:33;97155.59;;;6.38;72.42
76195;BME280;64964;48.694;21.206;2024-01-06T04:06:59;97146.56;;;6.33;72.47
76195;BME280;64964;48.694;21.206;2024-01-06T04:09:26;97032.53;;;5.62;72.66
76195;BME280;64964;48.694;21.206;2024-01-06T04:11:52;97143.78;;;6.26;72.02
76195;BME280;64964;48.694;21.206;2024-01-06T04:14:17;97143.28;;;6.22;72.47
76195;BME280;64964;48.694;21.206;2024-01-06T04:16:42;97132.94;;;6.21;72.91
76195;BME280;64964;48.694;21.206;2024-01-06T04:19:08;97144.59;;;6.27;72.97
76195;BME280;64964;48.694;21.206;2024-01-06T04:21:34;97143.13;;;6.24;73.08
76195;BME280;64964;48.694;21.206;2024-01-06T04:23:59;97128.69;;;6.12;72.83
76195;BME280;64964;48.694;21.206;2024-01-06T04:26:25;97149.19;;;6.24;73.16
76195;BME280;64964;48.694;21.206;2024-01-06T04:28:50;97133.44;;;6.16;73.28
76195;BME280;64964;48.694;21.206;2024-01-06T04:31:15;97138.03;;;6.22;73.41
76195;BME280;64964;48.694;21.206;2024-01-06T04:33:40;97130.00;;;6.24;73.15
76195;BME280;64964;48.694;21.206;2024-01-06T04:36:06;97101.13;;;6.08;73.07
76195;BME280;64964;48.694;21.206;2024-01-06T04:38:32;97136.38;;;6.21;73.26
76195;BME280;64964;48.694;21.206;2024-01-06T04:40:57;97120.31;;;6.16;73.24
76195;BME280;64964;48.694;21.206;2024-01-06T04:43:23;97131.81;;;6.23;73.23
76195;BME280;64964;48.694;21.206;2024-01-06T04:45:48;97133.63;;;6.23;73.06
76195;BME280;64964;48.694;21.206;2024-01-06T04:48:15;97133.75;;;6.21;73.05
76195;BME280;64964;48.694;21.206;2024-01-06T04:50:40;97125.91;;;6.21;73.16
76195;BME280;64964;48.694;21.206;2024-01-06T04:53:05;97124.09;;;6.22;73.14
76195;BME280;64964;48.694;21.206;2024-01-06T04:55:31;97125.75;;;6.23;73.21
76195;BME280;64964;48.694;21.206;2024-01-06T04:57:56;97133.63;;;6.23;73.21
76195;BME280;64964;48.694;21.206;2024-01-06T05:00:22;97120.97;;;6.18;73.30
76195;BME280;64964;48.694;21.206;2024-01-06T05:02:47;97114.56;;;6.13;73.10
76195;BME280;64964;48.694;21.206;2024-01-06T05:05:13;97135.09;;;6.26;73.35
76195;BME280;64964;48.694;21.206;2024-01-06T05:07:38;97121.47;;;6.22;73.16
76195;BME280;64964;48.694;21.206;2024-01-06T05:10:04;97132.13;;;6.29;73.27
76195;BME280;64964;48.694;21.206;2024-01-06T05:12:30;97083.41;;;6.02;73.22
76195;BME280;64964;48.694;21.206;2024-01-06T05:14:55;97121.81;;;6.27;73.14
76195;BME280;64964;48.694;21.206;2024-01-06T05:17:20;97126.88;;;6.29;72.86
76195;BME280;64964;48.694;21.206;2024-01-06T05:19:46;97124.25;;;6.29;73.24
76195;BME280;64964;48.694;21.206;2024-01-06T05:22:11;97127.22;;;6.26;73.07
76195;BME280;64964;48.694;21.206;2024-01-06T05:24:37;97115.06;;;6.24;73.22
76195;BME280;64964;48.694;21.206;2024-01-06T05:27:02;97117.38;;;6.28;73.30
76195;BME280;64964;48.694;21.206;2024-01-06T05:29:28;97113.94;;;6.27;72.74
76195;BME280;64964;48.694;21.206;2024-01-06T05:31:53;97118.34;;;6.27;72.89
76195;BME280;64964;48.694;21.206;2024-01-06T05:34:18;97109.66;;;6.26;73.18
76195;BME280;64964;48.694;21.206;2024-01-06T05:36:44;97100.47;;;6.22;72.75
76195;BME280;64964;48.694;21.206;2024-01-06T05:39:10;97119.00;;;6.29;72.84
76195;BME280;64964;48.694;21.206;2024-01-06T05:41:39;97121.13;;;6.25;72.85
76195;BME280;64964;48.694;21.206;2024-01-06T05:44:04;97131.97;;;6.30;72.67
76195;BME280;64964;48.694;21.206;2024-01-06T05:46:30;97125.06;;;6.29;72.86
76195;BME280;64964;48.694;21.206;2024-01-06T05:48:55;97095.88;;;6.08;73.00
76195;BME280;64964;48.694;21.206;2024-01-06T05:51:21;97120.97;;;6.27;72.90
76195;BME280;64964;48.694;21.206;2024-01-06T05:53:47;97119.81;;;6.29;72.45
76195;BME280;64964;48.694;21.206;2024-01-06T05:56:22;97118.69;;;6.23;72.93
76195;BME280;64964;48.694;21.206;2024-01-06T05:58:48;97105.88;;;6.29;72.76
76195;BME280;64964;48.694;21.206;2024-01-06T06:01:14;97097.19;;;6.20;73.18
76195;BME280;64964;48.694;21.206;2024-01-06T06:03:39;97117.19;;;6.29;72.53
76195;BME280;64964;48.694;21.206;2024-01-06T06:06:05;97101.13;;;6.24;72.44
76195;BME280;64964;48.694;21.206;2024-01-06T06:08:30;97103.91;;;6.31;72.88
76195;BME280;64964;48.694;21.206;2024-01-06T06:10:55;97102.94;;;6.32;72.71
76195;BME280;64964;48.694;21.206;2024-01-06T06:13:29;97109.81;;;6.33;72.60
76195;BME280;64964;48.694;21.206;2024-01-06T06:15:55;97114.91;;;6.34;72.39
76195;BME280;64964;48.694;21.206;2024-01-06T06:18:20;97122.13;;;6.32;72.38
76195;BME280;64964;48.694;21.206;2024-01-06T06:20:46;97123.78;;;6.33;72.14
76195;BME280;64964;48.694;21.206;2024-01-06T06:23:12;97137.53;;;6.35;72.17
76195;BME280;64964;48.694;21.206;2024-01-06T06:25:38;97119.34;;;6.26;72.22
76195;BME280;64964;48.694;21.206;2024-01-06T06:28:04;97131.31;;;6.36;72.32
76195;BME280;64964;48.694;21.206;2024-01-06T06:30:29;97131.16;;;6.38;72.25
76195;BME280;64964;48.694;21.206;2024-01-06T06:32:55;97124.59;;;6.34;72.23
76195;BME280;64964;48.694;21.206;2024-01-06T06:35:22;97119.50;;;6.32;72.23
76195;BME280;64964;48.694;21.206;2024-01-06T06:37:48;97118.69;;;6.32;72.20
76195;BME280;64964;48.694;21.206;2024-01-06T06:40:14;97125.56;;;6.41;72.43
76195;BME280;64964;48.694;21.206;2024-01-06T06:42:39;97125.41;;;6.42;72.43
76195;BME280;64964;48.694;21.206;2024-01-06T06:45:05;97080.47;;;6.21;71.91
76195;BME280;64964;48.694;21.206;2024-01-06T06:47:30;97123.28;;;6.46;71.72
76195;BME280;64964;48.694;21.206;2024-01-06T06:49:56;97122.28;;;6.39;71.64
76195;BME280;64964;48.694;21.206;2024-01-06T06:52:21;97137.38;;;6.45;71.86
76195;BME280;64964;48.694;21.206;2024-01-06T06:54:46;97121.78;;;6.35;72.03
76195;BME280;64964;48.694;21.206;2024-01-06T06:57:14;97096.88;;;6.23;71.88
76195;BME280;64964;48.694;21.206;2024-01-06T06:59:39;97138.22;;;6.45;71.89
76195;BME280;64964;48.694;21.206;2024-01-06T07:02:05;97134.91;;;6.43;71.94
76195;BME280;64964;48.694;21.206;2024-01-06T07:04:30;97140.00;;;6.45;72.05
76195;BME280;64964;48.694;21.206;2024-01-06T07:06:56;97133.78;;;6.46;71.98
76195;BME280;64964;48.694;21.206;2024-01-06T07:09:22;97143.78;;;6.51;71.64
76195;BME280;64964;48.694;21.206;2024-01-06T07:11:50;97150.03;;;6.49;71.71
76195;BME280;64964;48.694;21.206;2024-01-06T07:14:16;97125.09;;;6.37;71.81
76195;BME280;64964;48.694;21.206;2024-01-06T07:16:42;97136.06;;;6.49;71.70
76195;BME280;64964;48.694;21.206;2024-01-06T07:19:07;97143.47;;;6.54;71.73
76195;BME280;64964;48.694;21.206;2024-01-06T07:21:32;97145.09;;;6.55;72.06
76195;BME280;64964;48.694;21.206;2024-01-06T07:23:58;97140.66;;;6.55;72.14
76195;BME280;64964;48.694;21.206;2024-01-06T07:26:23;97141.31;;;6.57;72.15
76195;BME280;64964;48.694;21.206;2024-01-06T07:28:48;97134.25;;;6.58;71.93
76195;BME280;64964;48.694;21.206;2024-01-06T07:31:14;97124.25;;;6.53;71.88
76195;BME280;64964;48.694;21.206;2024-01-06T07:33:39;97148.22;;;6.66;71.92
76195;BME280;64964;48.694;21.206;2024-01-06T07:36:05;97140.16;;;6.68;71.75
76195;BME280;64964;48.694;21.206;2024-01-06T07:38:31;97140.97;;;6.68;72.02
76195;BME280;64964;48.694;21.206;2024-01-06T07:40:56;97114.06;;;6.58;71.76
76195;BME280;64964;48.694;21.206;2024-01-06T07:43:22;97131.94;;;6.71;71.72
76195;BME280;64964;48.694;21.206;2024-01-06T07:45:47;97139.31;;;6.76;71.84
76195;BME280;64964;48.694;21.206;2024-01-06T07:48:13;97145.25;;;6.78;72.00
76195;BME280;64964;48.694;21.206;2024-01-06T07:50:40;97137.19;;;6.71;71.79
76195;BME280;64964;48.694;21.206;2024-01-06T07:53:05;97159.84;;;6.80;71.78
76195;BME280;64964;48.694;21.206;2024-01-06T07:55:30;97161.47;;;6.81;71.71
76195;BME280;64964;48.694;21.206;2024-01-06T07:57:56;97150.00;;;6.82;71.75
76195;BME280;64964;48.694;21.206;2024-01-06T08:00:21;97145.25;;;6.78;71.87
76195;BME280;64964;48.694;21.206;2024-01-06T08:02:47;97149.50;;;6.87;72.07
76195;BME280;64964;48.694;21.206;2024-01-06T08:05:12;97149.16;;;6.90;71.75
76195;BME280;64964;48.694;21.206;2024-01-06T08:07:38;97149.81;;;6.92;71.94
76195;BME280;64964;48.694;21.206;2024-01-06T08:10:05;97146.03;;;6.94;71.98
76195;BME280;64964;48.694;21.206;2024-01-06T08:12:30;97142.41;;;6.95;71.77
76195;BME280;64964;48.694;21.206;2024-01-06T08:14:56;97132.22;;;7.01;72.05
76195;BME280;64964;48.694;21.206;2024-01-06T08:17:21;97140.91;;;7.01;71.87
76195;BME280;64964;48.694;21.206;2024-01-06T08:19:47;97148.28;;;7.06;72.15
76195;BME280;64964;48.694;21.206;2024-01-06T08:22:13;97149.78;;;7.08;71.85
76195;BME280;64964;48.694;21.206;2024-01-06T08:24:38;97144.19;;;7.11;71.66
76195;BME280;64964;48.694;21.206;2024-01-06T08:27:04;97144.00;;;7.13;71.69
76195;BME280;64964;48.694;21.206;2024-01-06T08:29:30;97146.94;;;7.18;71.67
76195;BME280;64964;48.694;21.206;2024-01-06T08:31:55;97145.13;;;7.18;71.34
76195;BME280;64964;48.694;21.206;2024-01-06T08:34:20;97139.06;;;7.18;71.67
76195;BME280;64964;48.694;21.206;2024-01-06T08:36:46;97135.44;;;7.19;71.33
76195;BME280;64964;48.694;21.206;2024-01-06T08:39:12;97139.03;;;7.26;71.54
76195;BME280;64964;48.694;21.206;2024-01-06T08:41:38;97140.50;;;7.29;71.33
76195;BME280;64964;48.694;21.206;2024-01-06T08:44:03;97122.16;;;7.12;71.32
76195;BME280;64964;48.694;21.206;2024-01-06T08:46:29;97144.16;;;7.28;70.85
76195;BME280;64964;48.694;21.206;2024-01-06T08:48:56;97152.66;;;7.30;70.46
76195;BME280;64964;48.694;21.206;2024-01-06T08:51:21;97154.28;;;7.31;70.45
76195;BME280;64964;48.694;21.206;2024-01-06T08:53:47;97113.97;;;7.07;70.03
76195;BME280;64964;48.694;21.206;2024-01-06T08:56:12;97157.94;;;7.30;70.04
76195;BME280;64964;48.694;21.206;2024-01-06T08:58:38;97147.91;;;7.25;69.72
76195;BME280;64964;48.694;21.206;2024-01-06T09:01:03;97129.88;;;7.14;70.39
76195;BME280;64964;48.694;21.206;2024-01-06T09:03:28;97152.03;;;7.28;70.20
76195;BME280;64964;48.694;21.206;2024-01-06T09:05:57;97153.00;;;7.27;70.02
76195;BME280;64964;48.694;21.206;2024-01-06T09:08:23;97158.22;;;7.35;70.19
76195;BME280;64964;48.694;21.206;2024-01-06T09:10:49;97143.28;;;7.27;70.31
76195;BME280;64964;48.694;21.206;2024-01-06T09:13:17;97164.47;;;7.42;70.17
76195;BME280;64964;48.694;21.206;2024-01-06T09:15:42;97161.50;;;7.45;69.62
76195;BME280;64964;48.694;21.206;2024-01-06T09:18:09;97152.59;;;7.46;69.92
76195;BME280;64964;48.694;21.206;2024-01-06T09:20:34;97163.75;;;7.48;70.16
76195;BME280;64964;48.694;21.206;2024-01-06T09:22:59;97158.97;;;7.52;70.27
76195;BME280;64964;48.694;21.206;2024-01-06T09:25:25;97156.34;;;7.52;69.98
76195;BME280;64964;48.694;21.206;2024-01-06T09:27:51;97150.28;;;7.51;69.83
76195;BME280;64964;48.694;21.206;2024-01-06T09:30:18;97147.66;;;7.51;70.00
76195;BME280;64964;48.694;21.206;2024-01-06T09:32:43;97144.50;;;7.56;70.07
76195;BME280;64964;48.694;21.206;2024-01-06T09:35:09;97143.53;;;7.57;70.30
76195;BME280;64964;48.694;21.206;2024-01-06T09:37:34;97134.66;;;7.58;70.49
76195;BME280;64964;48.694;21.206;2024-01-06T09:39:59;97133.66;;;7.59;70.09
76195;BME280;64964;48.694;21.206;2024-01-06T09:42:25;97115.09;;;7.52;70.20
76195;BME280;64964;48.694;21.206;2024-01-06T09:44:51;97127.56;;;7.58;70.15
76195;BME280;64964;48.694;21.206;2024-01-06T09:47:18;97082.78;;;7.35;70.22
76195;BME280;64964;48.694;21.206;2024-01-06T09:49:48;97077.41;;;7.29;70.34
76195;BME280;64964;48.694;21.206;2024-01-06T09:52:15;97109.84;;;7.52;70.33
76195;BME280;64964;48.694;21.206;2024-01-06T09:54:51;97100.66;;;7.48;69.95
76195;BME280;64964;48.694;21.206;2024-01-06T09:57:16;97070.97;;;7.31;69.93
76195;BME280;64964;48.694;21.206;2024-01-06T09:59:44;97102.78;;;7.53;69.98
76195;BME280;64964;48.694;21.206;2024-01-06T10:02:14;97105.72;;;7.58;69.75
76195;BME280;64964;48.694;21.206;2024-01-06T10:04:40;97108.50;;;7.56;70.12
76195;BME280;64964;48.694;21.206;2024-01-06T10:07:05;97107.06;;;7.54;70.27
76195;BME280;64964;48.694;21.206;2024-01-06T10:09:31;97118.19;;;7.56;70.27
76195;BME280;64964;48.694;21.206;2024-01-06T10:11:56;97105.75;;;7.49;70.50
76195;BME280;64964;48.694;21.206;2024-01-06T10:14:25;97109.34;;;7.57;70.54
76195;BME280;64964;48.694;21.206;2024-01-06T10:16:53;97108.50;;;7.56;70.99
76195;BME280;64964;48.694;21.206;2024-01-06T10:19:19;97108.16;;;7.59;70.76
76195;BME280;64964;48.694;21.206;2024-01-06T10:21:44;97107.16;;;7.60;71.09
76195;BME280;64964;48.694;21.206;2024-01-06T10:24:10;97086.81;;;7.54;71.17
76195;BME280;64964;48.694;21.206;2024-01-06T10:26:35;97108.16;;;7.59;71.32
76195;BME280;64964;48.694;21.206;2024-01-06T10:29:01;97101.75;;;7.62;71.05
76195;BME280;64964;48.694;21.206;2024-01-06T10:31:26;97097.31;;;7.62;71.34
76195;BME280;64964;48.694;21.206;2024-01-06T10:33:52;97087.78;;;7.61;71.44
76195;BME280;64964;48.694;21.206;2024-01-06T10:36:17;97077.94;;;7.55;71.32
76195;BME280;64964;48.694;21.206;2024-01-06T10:38:44;97072.53;;;7.57;71.31
76195;BME280;64964;48.694;21.206;2024-01-06T10:41:11;97078.88;;;7.62;71.14
76195;BME280;64964;48.694;21.206;2024-01-06T10:43:37;97078.69;;;7.64;71.14
76195;BME280;64964;48.694;21.206;2024-01-06T10:46:06;97080.50;;;7.63;71.21
76195;BME280;64964;48.694;21.206;2024-01-06T10:48:36;97080.34;;;7.65;71.13
76195;BME280;64964;48.694;21.206;2024-01-06T10:51:04;97079.38;;;7.66;71.32
76195;BME280;64964;48.694;21.206;2024-01-06T10:53:33;97055.41;;;7.61;71.33
76195;BME280;64964;48.694;21.206;2024-01-06T10:56:01;97065.91;;;7.61;71.34
76195;BME280;64964;48.694;21.206;2024-01-06T10:58:27;97064.56;;;7.65;71.29
76195;BME280;64964;48.694;21.206;2024-01-06T11:00:55;97058.38;;;7.58;71.07
76195;BME280;64964;48.694;21.206;2024-01-06T11:03:21;97056.38;;;7.60;70.84
76195;BME280;64964;48.694;21.206;2024-01-06T11:05:47;97063.56;;;7.66;70.91
76195;BME280;64964;48.694;21.206;2024-01-06T11:08:17;97068.84;;;7.66;71.34
76195;BME280;64964;48.694;21.206;2024-01-06T11:10:43;97065.56;;;7.64;70.93
76195;BME280;64964;48.694;21.206;2024-01-06T11:13:12;97058.66;;;7.63;71.08
76195;BME280;64964;48.694;21.206;2024-01-06T11:15:46;97067.38;;;7.63;71.04
76195;BME280;64964;48.694;21.206;2024-01-06T11:21:22;97059.81;;;7.60;71.46
76195;BME280;64964;48.694;21.206;2024-01-06T11:24:15;97045.03;;;7.59;71.65
76195;BME280;64964;48.694;21.206;2024-01-06T11:26:43;97043.22;;;7.60;71.46
76195;BME280;64964;48.694;21.206;2024-01-06T11:29:09;97029.16;;;7.53;71.54
76195;BME280;64964;48.694;21.206;2024-01-06T11:31:36;97020.66;;;7.42;71.33
76195;BME280;64964;48.694;21.206;2024-01-06T11:34:18;97033.41;;;7.54;71.64
76195;BME280;64964;48.694;21.206;2024-01-06T11:36:49;97039.97;;;7.58;71.73
76195;BME280;64964;48.694;21.206;2024-01-06T11:39:37;97036.03;;;7.54;72.18
76195;BME280;64964;48.694;21.206;2024-01-06T11:42:05;97043.41;;;7.58;71.87
76195;BME280;64964;48.694;21.206;2024-01-06T11:44:34;97036.66;;;7.56;71.97
76195;BME280;64964;48.694;21.206;2024-01-06T11:47:01;97042.09;;;7.54;72.09
76195;BME280;64964;48.694;21.206;2024-01-06T11:49:28;97028.81;;;7.47;71.99
76195;BME280;64964;48.694;21.206;2024-01-06T11:51:53;97035.03;;;7.55;72.31
76195;BME280;64964;48.694;21.206;2024-01-06T11:54:21;97035.03;;;7.55;72.22
76195;BME280;64964;48.694;21.206;2024-01-06T11:56:46;97035.03;;;7.55;72.30
76195;BME280;64964;48.694;21.206;2024-01-06T11:59:12;97038.66;;;7.54;72.05
76195;BME280;64964;48.694;21.206;2024-01-06T12:01:38;97034.91;;;7.48;72.32
76195;BME280;64964;48.694;21.206;2024-01-06T12:04:06;97041.16;;;7.47;72.66
76195;BME280;64964;48.694;21.206;2024-01-06T12:06:32;97049.72;;;7.49;72.43
76195;BME280;64964;48.694;21.206;2024-01-06T12:09:05;97043.97;;;7.45;72.67
76195;BME280;64964;48.694;21.206;2024-01-06T12:11:30;97030.22;;;7.35;72.30
76195;BME280;64964;48.694;21.206;2024-01-06T12:13:56;97038.88;;;7.44;72.55
76195;BME280;64964;48.694;21.206;2024-01-06T12:16:22;97036.41;;;7.42;72.48
76195;BME280;64964;48.694;21.206;2024-01-06T12:18:54;97036.94;;;7.38;72.47
76195;BME280;64964;48.694;21.206;2024-01-06T12:21:24;97042.38;;;7.36;72.71
76195;BME280;64964;48.694;21.206;2024-01-06T12:23:50;97039.44;;;7.31;72.94
76195;BME280;64964;48.694;21.206;2024-01-06T12:26:19;97035.66;;;7.34;72.92
76195;BME280;64964;48.694;21.206;2024-01-06T12:28:50;96996.88;;;7.05;72.83
76195;BME280;64964;48.694;21.206;2024-01-06T12:31:16;97043.41;;;7.27;72.67
76195;BME280;64964;48.694;21.206;2024-01-06T12:33:42;97039.47;;;7.23;73.05
76195;BME280;64964;48.694;21.206;2024-01-06T12:36:07;97044.09;;;7.21;73.10
76195;BME280;64964;48.694;21.206;2024-01-06T12:38:42;97049.03;;;7.24;72.79
76195;BME280;64964;48.694;21.206;2024-01-06T12:41:07;97051.97;;;7.21;72.90
76195;BME280;64964;48.694;21.206;2024-01-06T12:43:33;97058.06;;;7.21;73.14
76195;BME280;64964;48.694;21.206;2024-01-06T12:45:58;97045.75;;;7.14;72.98
76195;BME280;64964;48.694;21.206;2024-01-06T12:48:24;97045.13;;;7.12;73.29
76195;BME280;64964;48.694;21.206;2024-01-06T12:50:49;97054.31;;;7.16;73.18
76195;BME280;64964;48.694;21.206;2024-01-06T12:53:15;97055.13;;;7.16;73.24
76195;BME280;64964;48.694;21.206;2024-01-06T12:55:45;97053.66;;;7.14;73.48
76195;BME280;64964;48.694;21.206;2024-01-06T12:58:10;97057.28;;;7.13;73.50